Time;durP1;ratioP1;P1;durP2;ratioP2;P2;SDS_P1;SDS_P2;PMS_P1;PMS_P2;Temp;Humidity;BMP_temperature;BMP_pressure;BME280_temperature;BME280_humidity;BME280_pressure;Samples;Min_cycle;Max_cycle;Signal;HPM_P1;HPM_P2
2022/01/08 00:01:54;;;;;;;1.40;1.10;;;3.50;99.90;;;;;;5059711;28;20040;-78
2022/01/08 00:04:19;;;;;;;1.60;1.50;;;3.50;99.90;;;;;;5057241;28;20367;-78
2022/01/08 00:06:45;;;;;;;4.50;1.37;;;3.50;99.90;;;;;;5060351;28;20040;-79
2022/01/08 00:09:10;;;;;;;1.27;0.70;;;3.50;99.90;;;;;;5059394;28;20308;-79
2022/01/08 00:11:36;;;;;;;1.50;0.87;;;3.50;99.90;;;;;;5059501;28;20044;-79
2022/01/08 00:14:04;;;;;;;2.93;0.60;;;3.50;99.90;;;;;;5059857;28;20502;-79
2022/01/08 00:16:33;;;;;;;2.10;1.90;;;3.40;99.90;;;;;;5059747;28;20045;-78
2022/01/08 00:18:59;;;;;;;3.07;1.00;;;3.40;99.90;;;;;;5058617;28;20064;-78
2022/01/08 00:21:24;;;;;;;6.13;0.47;;;3.40;99.90;;;;;;5059643;28;20328;-79
2022/01/08 00:23:50;;;;;;;1.80;1.37;;;3.40;99.90;;;;;;5059712;28;20024;-79
2022/01/08 00:26:15;;;;;;;0.40;0.40;;;3.50;99.90;;;;;;5060378;28;20047;-78
2022/01/08 00:28:41;;;;;;;0.90;0.90;;;3.40;99.90;;;;;;5059418;28;20356;-78
2022/01/08 00:31:10;;;;;;;0.57;0.57;;;3.40;99.90;;;;;;5058065;28;20044;-79
2022/01/08 00:33:37;;;;;;;0.77;0.77;;;3.50;99.90;;;;;;5073801;28;20067;-78
2022/01/08 00:36:04;;;;;;;2.77;0.93;;;3.50;99.90;;;;;;5059662;28;20051;-78
2022/01/08 00:38:29;;;;;;;1.50;1.37;;;3.50;99.90;;;;;;5059207;28;20033;-78
2022/01/08 00:40:55;;;;;;;1.20;1.10;;;3.50;99.90;;;;;;5059331;28;20110;-78
2022/01/08 00:43:20;;;;;;;1.17;1.00;;;3.50;99.90;;;;;;5075317;28;20041;-78
2022/01/08 00:45:46;;;;;;;1.13;0.93;;;3.50;99.90;;;;;;5059534;28;20402;-78
2022/01/08 00:48:11;;;;;;;8.13;1.20;;;3.50;99.90;;;;;;5059544;28;20103;-78
2022/01/08 00:50:37;;;;;;;0.80;0.80;;;3.50;99.90;;;;;;5058448;28;20713;-78
2022/01/08 00:53:02;;;;;;;1.03;1.03;;;3.50;99.90;;;;;;5060295;28;20045;-79
2022/01/08 00:55:28;;;;;;;1.00;1.00;;;3.50;99.90;;;;;;5062765;28;20068;-78
2022/01/08 00:57:53;;;;;;;0.57;0.57;;;3.50;99.90;;;;;;5063355;28;20431;-79
2022/01/08 01:00:19;;;;;;;2.67;0.40;;;3.50;99.90;;;;;;5062225;28;20519;-79
2022/01/08 01:02:45;;;;;;;4.03;0.87;;;3.50;99.90;;;;;;5063550;28;20380;-78
2022/01/08 01:05:11;;;;;;;0.37;0.37;;;3.50;99.90;;;;;;5062188;28;20061;-78
2022/01/08 01:07:37;;;;;;;0.60;0.60;;;3.50;99.90;;;;;;5063135;28;20220;-78
2022/01/08 01:10:04;;;;;;;0.33;0.33;;;3.50;99.90;;;;;;5063427;28;20094;-78
2022/01/08 01:12:30;;;;;;;0.20;0.20;;;3.50;99.90;;;;;;5063037;28;20533;-79
2022/01/08 01:14:55;;;;;;;1.07;0.57;;;3.50;99.90;;;;;;5078154;28;20252;-79
2022/01/08 01:17:21;;;;;;;0.20;0.20;;;3.50;99.90;;;;;;5062952;28;20546;-79
2022/01/08 01:19:48;;;;;;;0.87;0.87;;;3.50;99.90;;;;;;5061030;28;20045;-78
2022/01/08 01:22:17;;;;;;;3.23;0.97;;;3.50;99.90;;;;;;5061673;28;20037;-78
2022/01/08 01:24:43;;;;;;;0.60;0.50;;;3.50;99.90;;;;;;5061999;28;20463;-78
2022/01/08 01:48:16;;;;;;;0.30;0.30;;;3.50;99.90;;;;;;5077022;28;20051;-79
2022/01/08 01:50:42;;;;;;;0.20;0.20;;;3.50;99.90;;;;;;5062637;28;20040;-78
2022/01/08 01:53:07;;;;;;;0.93;0.57;;;3.50;99.90;;;;;;5077837;28;20045;-79
2022/01/08 01:55:34;;;;;;;2.20;1.00;;;3.50;99.90;;;;;;5078086;28;20090;-79
2022/01/08 01:58:00;;;;;;;0.33;0.33;;;3.40;99.90;;;;;;5062185;28;20075;-79
2022/01/08 02:00:26;;;;;;;0.43;0.30;;;3.30;99.90;;;;;;5077283;28;20633;-79
2022/01/08 02:02:52;;;;;;;0.10;0.10;;;3.30;99.90;;;;;;5062341;28;20044;-78
2022/01/08 02:05:17;;;;;;;0.70;0.57;;;3.40;99.90;;;;;;5059860;28;20055;-79
2022/01/08 02:07:43;;;;;;;14.50;1.40;;;3.40;99.90;;;;;;5062614;28;20040;-78
2022/01/08 02:10:09;;;;;;;0.53;0.53;;;3.40;99.90;;;;;;5062408;28;20526;-78
2022/01/08 02:12:35;;;;;;;2.90;0.87;;;3.40;99.90;;;;;;5061343;28;20044;-79
2022/01/08 02:15:01;;;;;;;0.50;0.50;;;3.50;99.90;;;;;;5061536;28;20032;-78
2022/01/08 02:17:27;;;;;;;0.83;0.83;;;3.50;99.90;;;;;;5060624;28;20037;-78
2022/01/08 02:19:54;;;;;;;0.37;0.37;;;3.40;99.90;;;;;;5061198;28;20113;-78
2022/01/08 02:22:20;;;;;;;3.03;0.77;;;3.50;99.90;;;;;;5077720;28;20036;-79
2022/01/08 02:24:46;;;;;;;0.10;0.10;;;3.50;99.90;;;;;;5062034;28;20126;-78
2022/01/08 02:27:13;;;;;;;0.53;0.53;;;3.50;99.90;;;;;;5043770;28;20324;-78
2022/01/08 02:29:39;;;;;;;0.30;0.30;;;3.40;99.90;;;;;;5061266;28;20577;-78
2022/01/08 02:32:08;;;;;;;1.57;1.03;;;3.50;99.90;;;;;;5061643;28;20620;-78
2022/01/08 02:34:35;;;;;;;0.40;0.40;;;3.50;99.90;;;;;;5060444;28;20040;-79
2022/01/08 02:37:01;;;;;;;0.27;0.27;;;3.50;99.90;;;;;;5061546;28;20048;-78
2022/01/08 02:39:27;;;;;;;0.83;0.70;;;3.50;99.90;;;;;;5076464;28;20032;-78
2022/01/08 02:41:57;;;;;;;0.10;0.10;;;3.40;99.90;;;;;;5041990;28;20518;-78
2022/01/08 02:44:24;;;;;;;0.33;0.33;;;3.50;99.90;;;;;;5047201;28;20051;-78
2022/01/08 02:46:49;;;;;;;0.40;0.40;;;3.50;99.90;;;;;;5061025;28;20032;-78
2022/01/08 02:49:15;;;;;;;0.50;0.50;;;3.40;99.90;;;;;;5059825;28;20431;-78
2022/01/08 02:51:41;;;;;;;1.80;0.60;;;3.40;99.90;;;;;;5060474;28;20647;-78
2022/01/08 02:54:09;;;;;;;0.23;0.23;;;3.40;99.90;;;;;;5061615;28;20410;-78
2022/01/08 02:56:45;;;;;;;0.10;0.10;;;3.40;99.90;;;;;;5061187;28;20052;-78
2022/01/08 02:59:12;;;;;;;0.53;0.50;;;3.50;99.90;;;;;;5061100;28;20055;-78
2022/01/08 03:01:38;;;;;;;0.23;0.23;;;3.50;99.90;;;;;;5076531;28;20060;-78
2022/01/08 03:04:04;;;;;;;1.13;0.50;;;3.40;99.90;;;;;;5059549;28;20071;-78
2022/01/08 03:06:31;;;;;;;1.07;0.33;;;3.40;99.90;;;;;;5061035;28;20048;-78
2022/01/08 03:08:56;;;;;;;0.50;0.37;;;3.40;99.90;;;;;;5061003;28;20068;-78
2022/01/08 03:11:22;;;;;;;1.50;0.97;;;3.30;99.90;;;;;;5060983;28;20141;-78
2022/01/08 03:13:48;;;;;;;0.63;0.60;;;3.40;99.90;;;;;;5060450;28;20052;-78
2022/01/08 03:16:13;;;;;;;0.17;0.17;;;3.30;99.90;;;;;;5058658;28;20048;-78
2022/01/08 03:18:39;;;;;;;3.63;0.30;;;3.30;99.90;;;;;;5060466;28;20048;-78
2022/01/08 03:21:14;;;;;;;1.40;0.93;;;3.20;99.90;;;;;;5058777;28;20044;-78
2022/01/08 03:23:58;;;;;;;1.43;1.33;;;3.30;99.90;;;;;;5060869;28;20121;-79
2022/01/08 03:26:27;;;;;;;0.20;0.20;;;3.20;99.90;;;;;;5059472;28;20040;-78
2022/01/08 03:28:53;;;;;;;0.27;0.27;;;3.20;99.90;;;;;;5060628;28;20052;-78
2022/01/08 03:31:19;;;;;;;0.43;0.43;;;3.20;99.90;;;;;;5040327;28;20447;-78
2022/01/08 03:33:45;;;;;;;0.53;0.53;;;3.20;99.90;;;;;;5041231;28;20058;-78
2022/01/08 03:36:12;;;;;;;1.10;0.73;;;3.20;99.90;;;;;;5060219;28;20044;-78
2022/01/08 03:38:38;;;;;;;0.97;0.87;;;3.20;99.90;;;;;;5060146;28;20453;-78
2022/01/08 03:41:04;;;;;;;2.43;0.83;;;3.20;99.90;;;;;;5059865;28;20044;-78
2022/01/08 03:43:30;;;;;;;1.60;1.03;;;3.30;99.90;;;;;;5060818;28;20060;-79
2022/01/08 03:45:55;;;;;;;0.67;0.63;;;3.30;99.90;;;;;;5060963;28;20491;-78
2022/01/08 03:48:30;;;;;;;6.30;0.87;;;3.20;99.90;;;;;;5058010;28;20324;-78
2022/01/08 03:50:57;;;;;;;0.17;0.17;;;3.30;99.90;;;;;;5057495;28;20044;-79
2022/01/08 03:53:23;;;;;;;0.20;0.20;;;3.20;99.90;;;;;;5058918;28;20048;-78
2022/01/08 03:55:50;;;;;;;0.30;0.30;;;3.30;99.90;;;;;;5060341;28;20060;-78
2022/01/08 03:58:15;;;;;;;7.53;0.60;;;3.20;99.90;;;;;;5059470;28;20040;-78
2022/01/08 04:00:41;;;;;;;0.40;0.40;;;3.20;99.90;;;;;;5059874;28;20036;-78
2022/01/08 04:03:07;;;;;;;0.50;0.50;;;3.30;99.90;;;;;;5058566;28;20229;-78
2022/01/08 04:05:32;;;;;;;2.00;0.20;;;3.20;99.90;;;;;;5059790;28;20084;-78
2022/01/08 04:07:58;;;;;;;1.60;0.83;;;3.20;99.90;;;;;;5042644;28;20055;-78
2022/01/08 04:10:23;;;;;;;3.03;0.60;;;3.30;99.90;;;;;;5059246;28;20045;-78
2022/01/08 04:12:54;;;;;;;4.17;1.03;;;3.30;99.90;;;;;;5059863;28;20037;-78
2022/01/08 04:17:53;;;;;;;2.27;1.37;;;3.30;99.90;;;;;;5059212;28;20048;-78
2022/01/08 04:20:19;;;;;;;0.23;0.23;;;3.30;99.90;;;;;;5059590;28;20044;-78
2022/01/08 04:22:48;;;;;;;0.43;0.43;;;3.30;99.90;;;;;;5060551;28;20055;-78
2022/01/08 04:25:15;;;;;;;1.33;1.27;;;3.30;99.90;;;;;;5058601;28;20109;-78
2022/01/08 04:27:40;;;;;;;18.50;1.07;;;3.30;99.90;;;;;;5059349;28;20109;-78
2022/01/08 04:30:06;;;;;;;0.40;0.40;;;3.40;99.90;;;;;;5059537;28;20357;-78
2022/01/08 04:32:32;;;;;;;0.57;0.57;;;3.40;99.90;;;;;;5058294;28;20044;-78
2022/01/08 04:34:57;;;;;;;1.03;0.77;;;3.40;99.90;;;;;;5058666;28;20395;-78
2022/01/08 04:37:23;;;;;;;2.43;0.83;;;3.40;99.90;;;;;;5058801;28;20261;-78
2022/01/08 04:39:48;;;;;;;1.30;0.70;;;3.40;99.90;;;;;;5060066;28;20490;-78
2022/01/08 04:42:14;;;;;;;1.67;0.83;;;3.40;99.90;;;;;;5059789;28;20082;-78
2022/01/08 04:44:40;;;;;;;0.43;0.43;;;3.40;99.90;;;;;;5058951;28;20093;-78
2022/01/08 04:47:05;;;;;;;0.63;0.63;;;3.40;99.90;;;;;;5060841;28;20615;-78
2022/01/08 04:49:31;;;;;;;1.03;0.87;;;3.40;99.90;;;;;;5058409;28;20041;-78
2022/01/08 04:51:56;;;;;;;6.90;1.27;;;3.40;99.90;;;;;;5058146;28;20041;-78
2022/01/08 04:54:22;;;;;;;0.77;0.60;;;3.40;99.90;;;;;;5039446;28;20041;-78
2022/01/08 04:56:48;;;;;;;1.80;0.73;;;3.40;99.90;;;;;;5039550;28;20045;-78
2022/01/08 04:59:14;;;;;;;0.23;0.17;;;3.40;99.90;;;;;;5039972;28;20479;-78
2022/01/08 05:01:40;;;;;;;3.00;0.80;;;3.40;99.90;;;;;;5038796;28;20299;-78
2022/01/08 05:04:05;;;;;;;0.40;0.40;;;3.40;99.90;;;;;;5055810;28;20048;-78
2022/01/08 05:06:31;;;;;;;11.03;1.03;;;3.40;99.90;;;;;;5059295;28;20037;-78
2022/01/08 05:08:57;;;;;;;0.27;0.27;;;3.30;99.90;;;;;;5059562;28;20036;-78
2022/01/08 05:11:22;;;;;;;2.00;0.40;;;3.30;99.90;;;;;;5058846;28;20675;-78
2022/01/08 05:13:50;;;;;;;4.17;0.73;;;3.30;99.90;;;;;;5058323;28;20039;-78
2022/01/08 05:16:15;;;;;;;0.30;0.30;;;3.30;99.90;;;;;;5059956;28;20384;-78
2022/01/08 05:18:41;;;;;;;2.13;0.87;;;3.20;99.90;;;;;;5058105;28;20048;-78
2022/01/08 05:21:18;;;;;;;1.40;0.50;;;3.20;99.90;;;;;;5059262;28;20332;-78
2022/01/08 05:23:44;;;;;;;0.47;0.47;;;3.20;99.90;;;;;;5059323;28;20578;-77
2022/01/08 05:26:09;;;;;;;0.70;0.70;;;3.20;99.90;;;;;;5059112;28;20045;-78
2022/01/08 05:28:35;;;;;;;0.50;0.50;;;3.20;99.90;;;;;;5059072;28;20426;-78
2022/01/08 05:31:01;;;;;;;0.40;0.40;;;3.10;99.90;;;;;;5058006;28;20109;-78
2022/01/08 05:33:26;;;;;;;0.87;0.87;;;3.10;99.90;;;;;;5057924;28;20374;-78
2022/01/08 05:35:52;;;;;;;0.33;0.30;;;3.10;99.90;;;;;;5058321;28;20817;-78
2022/01/08 05:38:18;;;;;;;1.10;1.00;;;3.10;99.90;;;;;;5058896;28;20464;-79
2022/01/08 05:40:43;;;;;;;0.77;0.57;;;3.10;99.90;;;;;;5062517;28;20040;-78
2022/01/08 05:43:09;;;;;;;1.40;1.10;;;3.00;99.90;;;;;;5062641;28;20379;-78
2022/01/08 05:45:34;;;;;;;5.50;1.20;;;3.00;99.90;;;;;;5062616;28;20086;-78
2022/01/08 05:48:00;;;;;;;0.83;0.77;;;2.90;99.90;;;;;;5061643;28;20075;-78
2022/01/08 05:50:25;;;;;;;1.00;0.90;;;2.90;99.90;;;;;;5061733;28;20041;-78
2022/01/08 05:52:51;;;;;;;1.03;1.03;;;2.90;99.90;;;;;;5062083;28;20106;-78
2022/01/08 05:55:17;;;;;;;0.80;0.80;;;2.90;99.90;;;;;;5063058;28;20746;-78
2022/01/08 05:57:43;;;;;;;1.40;1.30;;;2.90;99.90;;;;;;5062631;28;20044;-78
2022/01/08 06:00:09;;;;;;;2.10;1.50;;;2.90;99.90;;;;;;5061466;28;20063;-78
2022/01/08 06:02:36;;;;;;;8.10;1.07;;;2.90;99.90;;;;;;5059445;28;20036;-78
2022/01/08 06:05:03;;;;;;;1.33;1.00;;;2.90;99.90;;;;;;5062005;28;20122;-78
2022/01/08 06:07:29;;;;;;;1.80;1.10;;;2.90;99.90;;;;;;5063371;28;20045;-78
2022/01/08 06:09:54;;;;;;;9.27;2.17;;;2.90;99.90;;;;;;5059543;28;20040;-78
2022/01/08 06:12:20;;;;;;;0.80;0.80;;;2.90;99.90;;;;;;5060725;28;20055;-78
2022/01/08 06:14:45;;;;;;;1.20;1.10;;;2.90;99.90;;;;;;5062965;28;20041;-78
2022/01/08 06:17:11;;;;;;;0.70;0.70;;;2.90;99.90;;;;;;5061148;28;20049;-78
2022/01/08 06:19:37;;;;;;;1.60;1.47;;;2.80;99.90;;;;;;5061009;28;20072;-78
2022/01/08 06:22:03;;;;;;;2.97;1.50;;;2.90;99.90;;;;;;5060008;28;20056;-78
2022/01/08 06:24:28;;;;;;;3.90;1.33;;;2.80;99.90;;;;;;5061949;28;20040;-79
2022/01/08 06:26:54;;;;;;;0.47;0.47;;;2.80;99.90;;;;;;5060575;28;20800;-78
2022/01/08 06:29:19;;;;;;;0.50;0.50;;;2.90;99.90;;;;;;5057574;28;20244;-78
2022/01/08 06:31:45;;;;;;;5.03;2.27;;;2.80;99.90;;;;;;5053417;28;20045;-78
2022/01/08 06:34:11;;;;;;;0.53;0.53;;;2.90;99.90;;;;;;5059737;28;20490;-78
2022/01/08 06:36:36;;;;;;;3.77;1.63;;;2.80;99.90;;;;;;5060976;28;20051;-78
2022/01/08 06:39:02;;;;;;;0.60;0.60;;;2.80;99.90;;;;;;5062913;28;20060;-78
2022/01/08 06:41:29;;;;;;;2.57;0.73;;;2.80;99.90;;;;;;5060805;28;20048;-78
2022/01/08 06:43:56;;;;;;;8.13;1.73;;;2.80;99.90;;;;;;5077062;28;20048;-79
2022/01/08 06:46:22;;;;;;;0.50;0.50;;;2.80;99.90;;;;;;5059687;28;20056;-78
2022/01/08 06:48:47;;;;;;;5.00;1.40;;;2.80;99.90;;;;;;5059763;28;20067;-78
2022/01/08 06:51:13;;;;;;;0.13;0.13;;;2.80;99.90;;;;;;5061121;28;20052;-78
2022/01/08 06:53:38;;;;;;;8.93;0.93;;;2.80;99.90;;;;;;5059927;28;20056;-79
2022/01/08 06:56:04;;;;;;;0.50;0.50;;;2.80;99.90;;;;;;5059824;28;20229;-78
2022/01/08 06:58:30;;;;;;;1.70;0.87;;;2.80;99.90;;;;;;5060760;28;20032;-79
2022/01/08 07:00:56;;;;;;;0.20;0.20;;;2.80;99.90;;;;;;5059481;28;20115;-78
2022/01/08 07:03:21;;;;;;;9.83;1.03;;;2.80;99.90;;;;;;5059561;28;20526;-79
2022/01/08 07:05:47;;;;;;;1.13;1.07;;;2.80;99.90;;;;;;5061295;28;20578;-79
2022/01/08 07:08:14;;;;;;;0.30;0.30;;;2.80;99.90;;;;;;5061240;28;20538;-78
2022/01/08 07:10:39;;;;;;;1.23;1.03;;;2.90;99.90;;;;;;5060396;28;20460;-78
2022/01/08 07:13:05;;;;;;;0.70;0.70;;;2.80;99.90;;;;;;5060220;28;20059;-78
2022/01/08 07:15:30;;;;;;;0.63;0.50;;;2.90;99.90;;;;;;5060172;28;20024;-78
2022/01/08 07:17:56;;;;;;;0.93;0.93;;;2.90;99.90;;;;;;5060247;28;20063;-79
2022/01/08 07:20:22;;;;;;;3.03;1.27;;;2.90;99.90;;;;;;5074747;28;20362;-79
2022/01/08 07:22:48;;;;;;;0.97;0.97;;;2.80;99.90;;;;;;5059422;28;20131;-79
2022/01/08 07:25:15;;;;;;;0.73;0.73;;;2.90;99.90;;;;;;5061839;28;20076;-79
2022/01/08 07:27:40;;;;;;;2.70;0.90;;;2.90;99.90;;;;;;5056124;28;20073;-79
2022/01/08 07:30:07;;;;;;;5.47;1.37;;;2.90;99.90;;;;;;5039121;28;20594;-79
2022/01/08 07:32:40;;;;;;;2.10;0.80;;;2.80;99.90;;;;;;5042762;28;20044;-79
2022/01/08 07:35:06;;;;;;;0.53;0.53;;;2.90;99.90;;;;;;5060502;28;20737;-78
2022/01/08 07:37:32;;;;;;;1.67;1.57;;;2.90;99.90;;;;;;5061023;28;20044;-79
2022/01/08 07:39:58;;;;;;;0.40;0.40;;;2.90;99.90;;;;;;5061205;28;20380;-79
2022/01/08 07:42:23;;;;;;;0.83;0.83;;;2.90;99.90;;;;;;5060300;28;20083;-79
2022/01/08 07:44:49;;;;;;;0.70;0.70;;;2.90;99.90;;;;;;5060310;28;20554;-79
2022/01/08 07:47:14;;;;;;;0.90;0.90;;;2.90;99.90;;;;;;5059948;28;20040;-79
2022/01/08 07:49:40;;;;;;;4.43;1.03;;;2.90;99.90;;;;;;5058933;28;20041;-79
2022/01/08 07:52:06;;;;;;;1.30;1.20;;;2.90;99.90;;;;;;5060010;28;20041;-78
2022/01/08 07:54:31;;;;;;;4.50;1.50;;;2.90;99.90;;;;;;5058802;28;20044;-78
2022/01/08 07:56:57;;;;;;;1.80;1.70;;;2.90;99.90;;;;;;5058544;28;20449;-79
2022/01/08 07:59:22;;;;;;;1.03;1.03;;;2.90;99.90;;;;;;5059053;28;20093;-79
2022/01/08 08:01:48;;;;;;;1.63;1.53;;;2.90;99.90;;;;;;5058885;28;20324;-79
2022/01/08 08:04:14;;;;;;;2.40;1.40;;;2.90;99.90;;;;;;5059790;28;20375;-78
2022/01/08 08:06:47;;;;;;;0.70;0.70;;;2.90;99.90;;;;;;5057768;28;20458;-78
2022/01/08 08:09:13;;;;;;;1.30;1.20;;;2.90;99.90;;;;;;5058995;28;20049;-78
2022/01/08 08:11:39;;;;;;;0.80;0.80;;;2.90;99.90;;;;;;5058081;28;20273;-79
2022/01/08 08:14:05;;;;;;;7.17;1.47;;;2.90;99.90;;;;;;5059956;28;20131;-79
2022/01/08 08:16:30;;;;;;;1.47;1.20;;;2.90;99.90;;;;;;5059171;28;20098;-79
2022/01/08 08:18:56;;;;;;;5.00;1.90;;;2.90;99.90;;;;;;5057850;28;20076;-79
2022/01/08 08:21:21;;;;;;;1.10;0.90;;;2.90;99.90;;;;;;5053276;28;20085;-79
2022/01/08 08:23:47;;;;;;;1.53;1.43;;;3.00;99.90;;;;;;5049396;28;20857;-78
2022/01/08 08:26:12;;;;;;;1.20;1.10;;;2.90;99.90;;;;;;5053247;28;20080;-79
2022/01/08 08:28:38;;;;;;;0.70;0.70;;;2.90;99.90;;;;;;5043805;28;20037;-79
2022/01/08 08:31:03;;;;;;;1.07;1.00;;;3.00;99.90;;;;;;5057641;28;20403;-78
2022/01/08 08:33:29;;;;;;;2.70;1.73;;;3.00;99.90;;;;;;5058524;28;20383;-79
2022/01/08 08:35:54;;;;;;;1.03;1.03;;;3.00;99.90;;;;;;5058557;28;20059;-79
2022/01/08 08:38:20;;;;;;;1.00;0.93;;;3.00;99.90;;;;;;5059412;28;20036;-79
2022/01/08 08:40:46;;;;;;;19.10;1.93;;;3.00;99.90;;;;;;5047184;28;20048;-79
2022/01/08 08:43:11;;;;;;;1.23;1.13;;;3.00;99.90;;;;;;5059741;28;20036;-79
2022/01/08 08:45:39;;;;;;;0.93;0.93;;;3.00;99.90;;;;;;5057851;28;20442;-79
2022/01/08 08:48:05;;;;;;;1.47;1.20;;;3.00;99.90;;;;;;5057718;28;20071;-79
2022/01/08 08:50:30;;;;;;;1.43;1.33;;;3.00;99.90;;;;;;5059642;28;20402;-78
2022/01/08 08:52:56;;;;;;;1.10;1.00;;;3.10;99.90;;;;;;5058832;28;20445;-79
2022/01/08 08:55:22;;;;;;;0.73;0.73;;;3.10;99.90;;;;;;5058127;28;20049;-79
2022/01/08 08:57:47;;;;;;;12.63;2.23;;;3.10;99.90;;;;;;5059638;28;20048;-79
2022/01/08 09:00:14;;;;;;;1.20;1.10;;;3.10;99.90;;;;;;5055884;28;20051;-79
2022/01/08 09:02:40;;;;;;;1.80;1.70;;;3.10;99.90;;;;;;5045511;28;20111;-79
2022/01/08 09:05:06;;;;;;;1.73;1.63;;;3.10;99.90;;;;;;5059762;28;20335;-79
2022/01/08 09:07:35;;;;;;;1.37;0.90;;;3.20;99.90;;;;;;5044824;28;20951;-79
2022/01/08 09:10:03;;;;;;;2.77;1.50;;;3.20;99.90;;;;;;5039404;28;20554;-79
2022/01/08 09:12:29;;;;;;;11.87;1.57;;;3.10;99.90;;;;;;5040120;28;20045;-80
2022/01/08 09:14:55;;;;;;;3.80;2.40;;;3.20;99.90;;;;;;5039868;28;20041;-79
2022/01/08 09:17:21;;;;;;;1.13;1.07;;;3.10;99.90;;;;;;5043054;28;20040;-80
2022/01/08 09:19:47;;;;;;;1.93;1.83;;;3.20;99.90;;;;;;5059073;28;20040;-79
2022/01/08 09:22:13;;;;;;;12.50;2.33;;;3.20;99.90;;;;;;5052777;28;20048;-79
2022/01/08 09:24:40;;;;;;;15.70;1.63;;;3.20;99.90;;;;;;5054683;28;20037;-79
2022/01/08 09:27:05;;;;;;;0.80;0.80;;;3.20;99.90;;;;;;5054455;28;20109;-81
2022/01/08 09:29:32;;;;;;;1.50;1.50;;;3.20;99.90;;;;;;5063419;28;20040;-78
2022/01/08 09:31:59;;;;;;;0.50;0.50;;;3.20;99.90;;;;;;5062924;28;20131;-80
2022/01/08 09:34:25;;;;;;;10.40;1.57;;;3.20;99.90;;;;;;5063949;28;20119;-80
2022/01/08 09:36:51;;;;;;;0.40;0.40;;;3.20;99.90;;;;;;5062933;28;20055;-80
2022/01/08 09:39:17;;;;;;;1.53;1.17;;;3.20;99.90;;;;;;5063332;28;20040;-77
2022/01/08 09:41:43;;;;;;;0.70;0.60;;;3.20;99.90;;;;;;5056216;28;20052;-79
2022/01/08 09:44:09;;;;;;;2.77;1.40;;;3.30;99.90;;;;;;5043961;28;20053;-80
2022/01/08 09:46:34;;;;;;;7.00;0.83;;;3.30;99.90;;;;;;5043445;28;20278;-79
2022/01/08 09:49:00;;;;;;;4.27;1.33;;;3.30;99.90;;;;;;5043189;28;20044;-80
2022/01/08 09:51:26;;;;;;;1.20;1.20;;;3.30;99.90;;;;;;5048641;28;20049;-79
2022/01/08 09:53:54;;;;;;;4.23;1.33;;;3.30;99.90;;;;;;5052088;28;20542;-79
2022/01/08 09:56:20;;;;;;;0.47;0.47;;;3.40;99.90;;;;;;5045198;28;20182;-78
2022/01/08 09:58:45;;;;;;;4.47;1.57;;;3.40;99.90;;;;;;5058085;28;20062;-78
2022/01/08 10:01:33;;;;;;;11.50;1.80;;;3.40;99.90;;;;;;5062679;28;20614;-78
2022/01/08 10:04:01;;;;;;;3.70;1.47;;;3.40;99.90;;;;;;5067283;28;20670;-77
2022/01/08 10:06:29;;;;;;;6.60;1.77;;;3.40;99.90;;;;;;5059215;28;20048;-78
2022/01/08 10:08:55;;;;;;;6.27;1.50;;;3.40;99.90;;;;;;5051972;28;20048;-78
2022/01/08 10:11:22;;;;;;;3.73;1.53;;;3.50;99.90;;;;;;5053952;28;20044;-78
2022/01/08 10:13:52;;;;;;;8.23;1.63;;;3.50;99.90;;;;;;5046271;28;20041;-80
2022/01/08 10:19:18;;;;;;;1.00;1.00;;;3.60;99.90;;;;;;5056523;28;20501;-78
2022/01/08 10:21:45;;;;;;;1.97;1.77;;;3.60;99.90;;;;;;5043318;28;20063;-78
2022/01/08 10:24:11;;;;;;;3.50;1.83;;;3.60;99.90;;;;;;5054298;28;20052;-77
2022/01/08 10:26:39;;;;;;;3.57;1.67;;;3.70;99.90;;;;;;5041593;28;20048;-78
2022/01/08 10:29:09;;;;;;;2.87;1.83;;;3.70;99.90;;;;;;5055093;28;20040;-77
2022/01/08 10:31:47;;;;;;;15.73;1.77;;;3.70;99.90;;;;;;5024716;28;20477;-77
2022/01/08 10:34:15;;;;;;;2.90;2.53;;;3.70;99.90;;;;;;5043815;28;20041;-77
2022/01/08 10:36:42;;;;;;;8.33;1.17;;;3.70;99.90;;;;;;5042188;28;20112;-79
2022/01/08 10:39:18;;;;;;;1.33;1.30;;;3.80;99.90;;;;;;5050147;28;20118;-79
2022/01/08 10:41:45;;;;;;;13.90;2.93;;;3.80;99.90;;;;;;5046006;28;20107;-79
2022/01/08 10:44:13;;;;;;;4.93;4.00;;;3.80;99.90;;;;;;5058718;28;20049;-78
2022/01/08 10:46:42;;;;;;;6.93;1.53;;;3.80;99.90;;;;;;5057205;28;20089;-79
2022/01/08 10:49:08;;;;;;;11.67;2.33;;;3.80;99.90;;;;;;5051822;28;20093;-79
2022/01/08 10:51:38;;;;;;;1.10;1.10;;;3.80;99.90;;;;;;5047424;28;20037;-84
2022/01/08 10:54:11;;;;;;;3.00;1.47;;;3.70;99.90;;;;;;5022956;28;20051;-84
2022/01/08 10:56:41;;;;;;;2.83;1.73;;;3.80;99.90;;;;;;5043228;28;20217;-86
2022/01/08 10:59:11;;;;;;;5.27;1.83;;;3.80;99.90;;;;;;5059406;28;20294;-87
2022/01/08 11:01:42;;;;;;;4.53;2.03;;;3.70;99.90;;;;;;5056397;28;20041;-87
2022/01/08 11:04:11;;;;;;;2.17;2.07;;;3.80;99.90;;;;;;5050786;28;20430;-91
2022/01/08 11:06:55;;;;;;;2.80;2.60;;;3.80;99.90;;;;;;5060115;28;20048;-85
2022/01/08 11:09:22;;;;;;;2.37;2.17;;;3.80;99.90;;;;;;5057806;28;20076;-77
2022/01/08 11:11:50;;;;;;;1.90;1.53;;;3.80;99.90;;;;;;5040986;28;20140;-76
2022/01/08 11:14:46;;;;;;;5.37;1.70;;;3.80;99.90;;;;;;5060694;28;20546;-77
2022/01/08 11:17:40;;;;;;;2.00;1.83;;;3.80;99.90;;;;;;5062023;28;20075;-96
2022/01/08 11:25:38;;;;;;;1.53;1.23;;;3.90;99.90;;;;;;5010262;22;20061;-86
2022/01/08 11:28:11;;;;;;;10.13;2.13;;;3.90;99.90;;;;;;4996247;28;20096;-86
2022/01/08 11:30:51;;;;;;;9.03;3.23;;;3.90;99.90;;;;;;4982322;28;20046;-91
2022/01/08 11:33:25;;;;;;;2.20;1.60;;;4.00;99.90;;;;;;4967518;28;20472;-87
2022/01/08 11:35:51;;;;;;;2.72;2.50;;;4.00;99.90;;;;;;4999704;28;20042;-84
2022/01/08 11:38:20;;;;;;;4.00;1.80;;;4.00;99.90;;;;;;4996503;28;20042;-89
2022/01/08 11:40:48;;;;;;;5.57;2.40;;;4.10;99.90;;;;;;4991435;28;20125;-89
2022/01/08 11:43:15;;;;;;;3.07;2.57;;;4.10;99.90;;;;;;4999596;28;20066;-78
2022/01/08 11:45:48;;;;;;;3.40;2.20;;;4.10;99.90;;;;;;4984142;28;20056;-78
2022/01/08 11:48:16;;;;;;;3.60;3.27;;;4.10;99.90;;;;;;4968003;28;20042;-79
2022/01/08 11:50:51;;;;;;;2.57;2.20;;;4.10;99.90;;;;;;4983193;28;20070;-77
2022/01/08 11:53:28;;;;;;;4.00;2.77;;;4.20;99.90;;;;;;4983522;28;20050;-76
2022/01/08 11:55:57;;;;;;;3.10;2.83;;;4.20;99.90;;;;;;4983690;28;20061;-77
2022/01/08 11:58:26;;;;;;;4.43;2.60;;;4.20;99.90;;;;;;4982116;28;20037;-78
2022/01/08 12:01:11;;;;;;;3.97;2.97;;;4.20;99.90;;;;;;4983746;28;20073;-78
2022/01/08 12:03:49;;;;;;;4.47;2.70;;;4.20;99.90;;;;;;4979927;28;20053;-78
2022/01/08 12:06:21;;;;;;;5.20;3.23;;;4.20;99.90;;;;;;5001756;28;20113;-78
2022/01/08 12:09:07;;;;;;;3.15;2.83;;;4.30;99.90;;;;;;4977560;28;20049;-76
2022/01/08 12:11:50;;;;;;;3.23;3.00;;;4.20;99.90;;;;;;4994184;28;20054;-79
2022/01/08 12:14:42;;;;;;;4.47;4.20;;;4.30;99.90;;;;;;4974801;28;20571;-93
2022/01/08 12:17:21;;;;;;;5.83;4.73;;;4.30;99.90;;;;;;4954317;28;20085;-94
2022/01/08 12:19:57;;;;;;;4.07;3.70;;;4.30;99.90;;;;;;4976578;28;20719;-93
2022/01/08 12:22:23;;;;;;;3.43;3.23;;;4.30;99.90;;;;;;5000839;28;20038;-85
2022/01/08 12:24:57;;;;;;;5.32;4.88;;;4.30;99.90;;;;;;4990095;28;20504;-90
2022/01/08 12:27:34;;;;;;;5.70;3.53;;;4.30;99.90;;;;;;4969733;28;20497;-95
2022/01/08 12:30:03;;;;;;;6.75;4.88;;;4.30;99.90;;;;;;4976100;28;20466;-92
2022/01/08 12:32:37;;;;;;;14.82;5.10;;;4.30;99.90;;;;;;4968300;28;20081;-88
2022/01/08 12:35:32;;;;;;;7.73;4.97;;;4.30;99.90;;;;;;4981703;28;20056;-91
2022/01/08 12:38:05;;;;;;;9.50;5.43;;;4.30;99.90;;;;;;4973656;28;20069;-95
2022/01/08 12:40:47;;;;;;;9.25;5.50;;;4.20;99.90;;;;;;4965790;28;20038;-91
2022/01/08 12:43:35;;;;;;;7.07;4.78;;;4.20;99.90;;;;;;4971025;28;20482;-91
2022/01/08 12:46:19;;;;;;;4.70;4.30;;;4.20;99.90;;;;;;4971325;28;20492;-88
2022/01/08 12:49:03;;;;;;;6.90;4.47;;;4.20;99.90;;;;;;5002870;28;20050;-95
2022/01/08 12:51:48;;;;;;;4.33;3.53;;;4.20;99.90;;;;;;4997490;28;20053;-96
2022/01/08 12:54:18;;;;;;;15.57;3.78;;;4.20;99.90;;;;;;4977910;28;20116;-94
2022/01/08 12:56:48;;;;;;;6.57;2.75;;;4.20;99.90;;;;;;4976937;28;20034;-88
2022/01/08 12:59:14;;;;;;;1.90;1.80;;;4.20;99.90;;;;;;4987623;28;20077;-93
2022/01/08 13:01:44;;;;;;;1.77;1.67;;;4.20;99.90;;;;;;4964389;28;20089;-92
2022/01/08 13:04:20;;;;;;;1.57;1.47;;;4.20;99.90;;;;;;4976414;28;20037;-96
2022/01/08 13:06:55;;;;;;;0.47;0.47;;;4.20;99.90;;;;;;4967939;28;20065;-96
2022/01/08 13:09:42;;;;;;;1.13;1.03;;;4.20;99.90;;;;;;4978365;28;20046;-94
2022/01/08 13:12:22;;;;;;;3.40;1.48;;;4.20;99.90;;;;;;4986306;28;20064;-84
2022/01/08 13:15:00;;;;;;;1.13;1.13;;;4.20;99.90;;;;;;4978432;28;20092;-83
2022/01/08 13:17:26;;;;;;;2.37;0.97;;;4.20;99.90;;;;;;4997371;28;20049;-84
2022/01/08 13:20:04;;;;;;;4.10;1.40;;;4.20;99.90;;;;;;5004558;28;20046;-82
2022/01/08 13:22:31;;;;;;;9.07;1.33;;;4.20;99.90;;;;;;4993350;28;20038;-80
2022/01/08 13:24:57;;;;;;;1.15;1.00;;;4.10;99.90;;;;;;4972831;28;20129;-82
2022/01/08 13:27:31;;;;;;;1.15;1.15;;;4.20;99.90;;;;;;4951213;28;20053;-89
2022/01/08 13:30:03;;;;;;;0.93;0.93;;;4.20;99.90;;;;;;4955679;28;20077;-87
2022/01/08 13:33:01;;;;;;;0.97;0.87;;;4.20;99.90;;;;;;4971022;28;20057;-89